sensor_id;sensor_type;location;lat;lon;timestamp;P1;durP1;ratioP1;P2;durP2;ratioP2
50291;SDS011;36190;54.980;73.388;2022-08-11T00:02:22;171.33;;;91.47;;
50291;SDS011;36190;54.980;73.388;2022-08-11T00:04:56;169.85;;;89.18;;
50291;SDS011;36190;54.980;73.388;2022-08-11T00:07:29;174.07;;;92.90;;
50291;SDS011;36190;54.980;73.388;2022-08-11T00:09:57;180.02;;;95.30;;
50291;SDS011;36190;54.980;73.388;2022-08-11T00:12:27;175.60;;;91.57;;
50291;SDS011;36190;54.980;73.388;2022-08-11T00:14:56;187.65;;;95.43;;
50291;SDS011;36190;54.980;73.388;2022-08-11T00:17:26;180.75;;;96.30;;
50291;SDS011;36190;54.980;73.388;2022-08-11T00:20:04;180.50;;;93.05;;
50291;SDS011;36190;54.980;73.388;2022-08-11T00:22:33;187.15;;;98.70;;
50291;SDS011;36190;54.980;73.388;2022-08-11T00:25:07;185.43;;;97.53;;
50291;SDS011;36190;54.980;73.388;2022-08-11T00:27:38;190.50;;;99.82;;
50291;SDS011;36190;54.980;73.388;2022-08-11T00:30:07;195.02;;;100.63;;
50291;SDS011;36190;54.980;73.388;2022-08-11T00:32:40;197.88;;;102.20;;
50291;SDS011;36190;54.980;73.388;2022-08-11T00:35:09;204.73;;;103.82;;
50291;SDS011;36190;54.980;73.388;2022-08-11T00:37:39;199.85;;;102.55;;
50291;SDS011;36190;54.980;73.388;2022-08-11T00:40:15;193.40;;;102.05;;
50291;SDS011;36190;54.980;73.388;2022-08-11T00:43:00;201.10;;;101.18;;
50291;SDS011;36190;54.980;73.388;2022-08-11T00:45:41;197.65;;;102.68;;
50291;SDS011;36190;54.980;73.388;2022-08-11T00:48:20;210.00;;;104.22;;
50291;SDS011;36190;54.980;73.388;2022-08-11T00:50:58;196.43;;;100.88;;
50291;SDS011;36190;54.980;73.388;2022-08-11T00:53:43;198.82;;;103.88;;
50291;SDS011;36190;54.980;73.388;2022-08-11T00:59:52;203.50;;;103.63;;
50291;SDS011;36190;54.980;73.388;2022-08-11T01:02:40;194.13;;;101.65;;
50291;SDS011;36190;54.980;73.388;2022-08-11T01:14:25;198.82;;;100.20;;
50291;SDS011;36190;54.980;73.388;2022-08-11T01:20:40;198.73;;;100.47;;
50291;SDS011;36190;54.980;73.388;2022-08-11T01:23:44;195.43;;;98.85;;
50291;SDS011;36190;54.980;73.388;2022-08-11T01:39:18;183.70;;;93.90;;
50291;SDS011;36190;54.980;73.388;2022-08-11T01:42:21;194.50;;;97.40;;
50291;SDS011;36190;54.980;73.388;2022-08-11T01:45:29;179.70;;;93.25;;
50291;SDS011;36190;54.980;73.388;2022-08-11T01:48:05;177.82;;;94.18;;
50291;SDS011;36190;54.980;73.388;2022-08-11T01:50:45;182.88;;;92.97;;
50291;SDS011;36190;54.980;73.388;2022-08-11T01:53:30;188.05;;;93.75;;
50291;SDS011;36190;54.980;73.388;2022-08-11T01:56:12;180.40;;;92.00;;
50291;SDS011;36190;54.980;73.388;2022-08-11T01:58:49;185.77;;;94.38;;
50291;SDS011;36190;54.980;73.388;2022-08-11T02:01:33;183.77;;;91.72;;
50291;SDS011;36190;54.980;73.388;2022-08-11T02:04:13;195.40;;;95.63;;
50291;SDS011;36190;54.980;73.388;2022-08-11T02:06:47;196.60;;;95.03;;
50291;SDS011;36190;54.980;73.388;2022-08-11T02:12:22;186.50;;;94.60;;
50291;SDS011;36190;54.980;73.388;2022-08-11T02:15:06;185.90;;;90.45;;
50291;SDS011;36190;54.980;73.388;2022-08-11T02:17:43;185.63;;;95.07;;
50291;SDS011;36190;54.980;73.388;2022-08-11T02:20:21;184.85;;;93.70;;
50291;SDS011;36190;54.980;73.388;2022-08-11T02:23:12;201.30;;;96.50;;
50291;SDS011;36190;54.980;73.388;2022-08-11T02:26:08;192.90;;;95.18;;
50291;SDS011;36190;54.980;73.388;2022-08-11T02:31:39;189.00;;;94.45;;
50291;SDS011;36190;54.980;73.388;2022-08-11T02:34:31;194.15;;;96.05;;
50291;SDS011;36190;54.980;73.388;2022-08-11T02:37:13;195.50;;;95.97;;
50291;SDS011;36190;54.980;73.388;2022-08-11T02:39:53;197.20;;;94.32;;
50291;SDS011;36190;54.980;73.388;2022-08-11T02:42:32;194.13;;;96.22;;
50291;SDS011;36190;54.980;73.388;2022-08-11T02:45:30;194.80;;;97.10;;
50291;SDS011;36190;54.980;73.388;2022-08-11T02:48:05;199.43;;;98.20;;
50291;SDS011;36190;54.980;73.388;2022-08-11T02:51:02;200.27;;;97.70;;
50291;SDS011;36190;54.980;73.388;2022-08-11T02:53:41;187.25;;;94.30;;
50291;SDS011;36190;54.980;73.388;2022-08-11T02:56:15;196.95;;;95.15;;
50291;SDS011;36190;54.980;73.388;2022-08-11T02:58:54;195.50;;;94.60;;
50291;SDS011;36190;54.980;73.388;2022-08-11T03:02:01;193.50;;;92.63;;
50291;SDS011;36190;54.980;73.388;2022-08-11T03:04:36;191.80;;;92.40;;
50291;SDS011;36190;54.980;73.388;2022-08-11T03:07:14;190.45;;;93.28;;
50291;SDS011;36190;54.980;73.388;2022-08-11T03:09:48;193.38;;;95.85;;
50291;SDS011;36190;54.980;73.388;2022-08-11T03:12:23;191.10;;;91.78;;
50291;SDS011;36190;54.980;73.388;2022-08-11T03:15:15;190.50;;;94.03;;
50291;SDS011;36190;54.980;73.388;2022-08-11T03:18:11;183.77;;;91.07;;
50291;SDS011;36190;54.980;73.388;2022-08-11T03:20:50;188.98;;;93.55;;
50291;SDS011;36190;54.980;73.388;2022-08-11T03:23:28;186.25;;;91.63;;
50291;SDS011;36190;54.980;73.388;2022-08-11T03:26:02;185.45;;;94.28;;
50291;SDS011;36190;54.980;73.388;2022-08-11T03:28:36;184.57;;;90.40;;
50291;SDS011;36190;54.980;73.388;2022-08-11T03:31:15;175.15;;;89.90;;
50291;SDS011;36190;54.980;73.388;2022-08-11T03:33:52;192.80;;;90.40;;
50291;SDS011;36190;54.980;73.388;2022-08-11T03:36:35;171.32;;;88.72;;
50291;SDS011;36190;54.980;73.388;2022-08-11T03:39:19;167.65;;;87.93;;
50291;SDS011;36190;54.980;73.388;2022-08-11T03:41:56;181.68;;;90.95;;
50291;SDS011;36190;54.980;73.388;2022-08-11T03:44:36;180.02;;;88.75;;
50291;SDS011;36190;54.980;73.388;2022-08-11T03:47:21;172.77;;;88.28;;
50291;SDS011;36190;54.980;73.388;2022-08-11T03:52:37;179.93;;;88.32;;
50291;SDS011;36190;54.980;73.388;2022-08-11T03:55:14;172.55;;;84.93;;
50291;SDS011;36190;54.980;73.388;2022-08-11T04:07:17;165.15;;;85.93;;
50291;SDS011;36190;54.980;73.388;2022-08-11T04:10:12;167.23;;;85.47;;
50291;SDS011;36190;54.980;73.388;2022-08-11T04:16:15;174.32;;;87.03;;
50291;SDS011;36190;54.980;73.388;2022-08-11T04:25:48;157.23;;;85.05;;
50291;SDS011;36190;54.980;73.388;2022-08-11T04:28:41;167.70;;;87.53;;
50291;SDS011;36190;54.980;73.388;2022-08-11T04:31:34;168.20;;;85.65;;
50291;SDS011;36190;54.980;73.388;2022-08-11T04:37:27;159.70;;;80.20;;
50291;SDS011;36190;54.980;73.388;2022-08-11T04:40:33;159.38;;;83.55;;
50291;SDS011;36190;54.980;73.388;2022-08-11T04:50:14;152.68;;;78.88;;
50291;SDS011;36190;54.980;73.388;2022-08-11T04:53:11;155.32;;;81.57;;
50291;SDS011;36190;54.980;73.388;2022-08-11T04:56:08;152.95;;;81.72;;
50291;SDS011;36190;54.980;73.388;2022-08-11T04:59:07;154.15;;;80.95;;
50291;SDS011;36190;54.980;73.388;2022-08-11T05:02:18;151.43;;;78.90;;
50291;SDS011;36190;54.980;73.388;2022-08-11T05:05:18;151.75;;;78.82;;
50291;SDS011;36190;54.980;73.388;2022-08-11T05:11:05;162.43;;;81.45;;
50291;SDS011;36190;54.980;73.388;2022-08-11T05:13:50;154.55;;;83.03;;
50291;SDS011;36190;54.980;73.388;2022-08-11T05:16:49;147.35;;;80.05;;
50291;SDS011;36190;54.980;73.388;2022-08-11T05:19:36;158.45;;;82.22;;
50291;SDS011;36190;54.980;73.388;2022-08-11T05:22:21;155.68;;;83.05;;
50291;SDS011;36190;54.980;73.388;2022-08-11T05:25:08;159.52;;;84.13;;
50291;SDS011;36190;54.980;73.388;2022-08-11T05:28:02;152.88;;;79.78;;
50291;SDS011;36190;54.980;73.388;2022-08-11T05:30:52;141.45;;;78.28;;
50291;SDS011;36190;54.980;73.388;2022-08-11T05:33:44;151.73;;;79.40;;
50291;SDS011;36190;54.980;73.388;2022-08-11T05:36:30;148.63;;;79.47;;
50291;SDS011;36190;54.980;73.388;2022-08-11T05:39:04;144.63;;;76.97;;
50291;SDS011;36190;54.980;73.388;2022-08-11T05:41:56;144.32;;;76.43;;
50291;SDS011;36190;54.980;73.388;2022-08-11T05:44:44;144.90;;;75.43;;
50291;SDS011;36190;54.980;73.388;2022-08-11T05:47:32;147.82;;;76.28;;
50291;SDS011;36190;54.980;73.388;2022-08-11T05:50:19;150.10;;;77.13;;
50291;SDS011;36190;54.980;73.388;2022-08-11T05:53:07;139.45;;;76.90;;
50291;SDS011;36190;54.980;73.388;2022-08-11T05:55:53;143.60;;;77.55;;
50291;SDS011;36190;54.980;73.388;2022-08-11T05:58:40;140.32;;;76.88;;
50291;SDS011;36190;54.980;73.388;2022-08-11T06:01:13;143.85;;;75.47;;
50291;SDS011;36190;54.980;73.388;2022-08-11T06:03:48;136.57;;;76.55;;
50291;SDS011;36190;54.980;73.388;2022-08-11T06:06:35;146.85;;;79.05;;
50291;SDS011;36190;54.980;73.388;2022-08-11T06:09:05;149.90;;;78.68;;
50291;SDS011;36190;54.980;73.388;2022-08-11T06:11:37;140.32;;;77.28;;
50291;SDS011;36190;54.980;73.388;2022-08-11T06:14:05;148.55;;;80.25;;
50291;SDS011;36190;54.980;73.388;2022-08-11T06:16:36;139.65;;;76.55;;
50291;SDS011;36190;54.980;73.388;2022-08-11T06:19:06;146.52;;;77.05;;
50291;SDS011;36190;54.980;73.388;2022-08-11T06:21:34;144.90;;;79.28;;
50291;SDS011;36190;54.980;73.388;2022-08-11T06:24:03;142.65;;;76.07;;
50291;SDS011;36190;54.980;73.388;2022-08-11T06:29:03;136.52;;;75.05;;
50291;SDS011;36190;54.980;73.388;2022-08-11T06:31:32;136.68;;;76.00;;
50291;SDS011;36190;54.980;73.388;2022-08-11T06:34:06;135.63;;;73.15;;
50291;SDS011;36190;54.980;73.388;2022-08-11T06:36:40;134.38;;;73.03;;
50291;SDS011;36190;54.980;73.388;2022-08-11T06:39:17;132.25;;;72.22;;
50291;SDS011;36190;54.980;73.388;2022-08-11T06:41:51;128.70;;;70.40;;
50291;SDS011;36190;54.980;73.388;2022-08-11T06:44:25;131.95;;;71.20;;
50291;SDS011;36190;54.980;73.388;2022-08-11T06:47:02;131.13;;;72.63;;
50291;SDS011;36190;54.980;73.388;2022-08-11T06:49:35;131.98;;;72.47;;
50291;SDS011;36190;54.980;73.388;2022-08-11T06:52:28;136.38;;;73.60;;
50291;SDS011;36190;54.980;73.388;2022-08-11T06:54:59;127.22;;;72.40;;
50291;SDS011;36190;54.980;73.388;2022-08-11T06:57:32;126.22;;;69.55;;
50291;SDS011;36190;54.980;73.388;2022-08-11T07:00:19;122.43;;;68.47;;
50291;SDS011;36190;54.980;73.388;2022-08-11T07:03:00;125.13;;;67.68;;
50291;SDS011;36190;54.980;73.388;2022-08-11T07:05:44;124.13;;;65.63;;
50291;SDS011;36190;54.980;73.388;2022-08-11T07:08:28;121.55;;;66.95;;
50291;SDS011;36190;54.980;73.388;2022-08-11T07:14:49;121.00;;;67.35;;
50291;SDS011;36190;54.980;73.388;2022-08-11T07:17:36;124.82;;;67.88;;
50291;SDS011;36190;54.980;73.388;2022-08-11T07:20:13;121.30;;;65.25;;
50291;SDS011;36190;54.980;73.388;2022-08-11T07:23:02;116.32;;;65.38;;
50291;SDS011;36190;54.980;73.388;2022-08-11T07:25:51;113.25;;;63.75;;
50291;SDS011;36190;54.980;73.388;2022-08-11T07:28:38;127.63;;;66.20;;
50291;SDS011;36190;54.980;73.388;2022-08-11T07:31:25;111.05;;;64.20;;
50291;SDS011;36190;54.980;73.388;2022-08-11T07:34:03;125.40;;;68.70;;
50291;SDS011;36190;54.980;73.388;2022-08-11T07:36:38;117.60;;;63.58;;
50291;SDS011;36190;54.980;73.388;2022-08-11T07:39:13;125.72;;;67.13;;
50291;SDS011;36190;54.980;73.388;2022-08-11T07:41:45;122.18;;;67.30;;
50291;SDS011;36190;54.980;73.388;2022-08-11T07:44:13;115.97;;;65.68;;
50291;SDS011;36190;54.980;73.388;2022-08-11T07:46:43;117.70;;;66.78;;
50291;SDS011;36190;54.980;73.388;2022-08-11T07:49:30;116.32;;;63.75;;
50291;SDS011;36190;54.980;73.388;2022-08-11T07:52:17;118.15;;;64.95;;
50291;SDS011;36190;54.980;73.388;2022-08-11T07:54:59;112.28;;;62.13;;
50291;SDS011;36190;54.980;73.388;2022-08-11T07:57:28;110.40;;;61.50;;
50291;SDS011;36190;54.980;73.388;2022-08-11T08:00:14;112.07;;;64.70;;
50291;SDS011;36190;54.980;73.388;2022-08-11T08:03:00;114.30;;;63.67;;
50291;SDS011;36190;54.980;73.388;2022-08-11T08:05:46;117.13;;;66.28;;
50291;SDS011;36190;54.980;73.388;2022-08-11T08:08:32;115.30;;;63.78;;
50291;SDS011;36190;54.980;73.388;2022-08-11T08:11:20;107.25;;;61.08;;
50291;SDS011;36190;54.980;73.388;2022-08-11T08:14:07;104.30;;;57.78;;
50291;SDS011;36190;54.980;73.388;2022-08-11T08:16:52;100.43;;;58.33;;
50291;SDS011;36190;54.980;73.388;2022-08-11T08:19:38;108.13;;;58.13;;
50291;SDS011;36190;54.980;73.388;2022-08-11T08:22:09;105.18;;;60.33;;
50291;SDS011;36190;54.980;73.388;2022-08-11T08:24:37;116.95;;;62.08;;
50291;SDS011;36190;54.980;73.388;2022-08-11T08:27:07;108.13;;;60.42;;
50291;SDS011;36190;54.980;73.388;2022-08-11T08:29:38;104.40;;;58.50;;
50291;SDS011;36190;54.980;73.388;2022-08-11T08:32:24;104.72;;;57.28;;
50291;SDS011;36190;54.980;73.388;2022-08-11T08:34:53;100.45;;;57.58;;
50291;SDS011;36190;54.980;73.388;2022-08-11T08:37:23;97.28;;;58.08;;
50291;SDS011;36190;54.980;73.388;2022-08-11T08:39:51;101.30;;;56.72;;
50291;SDS011;36190;54.980;73.388;2022-08-11T08:42:23;94.07;;;55.67;;
50291;SDS011;36190;54.980;73.388;2022-08-11T08:44:55;95.10;;;55.88;;
50291;SDS011;36190;54.980;73.388;2022-08-11T08:47:24;107.97;;;56.30;;
50291;SDS011;36190;54.980;73.388;2022-08-11T08:49:59;99.70;;;57.03;;
50291;SDS011;36190;54.980;73.388;2022-08-11T08:52:30;93.88;;;56.38;;
50291;SDS011;36190;54.980;73.388;2022-08-11T08:55:01;104.13;;;57.97;;
50291;SDS011;36190;54.980;73.388;2022-08-11T08:57:33;100.50;;;56.65;;
50291;SDS011;36190;54.980;73.388;2022-08-11T09:00:02;96.63;;;56.53;;
50291;SDS011;36190;54.980;73.388;2022-08-11T09:02:32;98.25;;;57.30;;
50291;SDS011;36190;54.980;73.388;2022-08-11T09:05:01;97.13;;;53.67;;
50291;SDS011;36190;54.980;73.388;2022-08-11T09:07:30;92.22;;;54.80;;
50291;SDS011;36190;54.980;73.388;2022-08-11T09:09:59;98.10;;;55.25;;
50291;SDS011;36190;54.980;73.388;2022-08-11T09:12:27;95.20;;;56.38;;
50291;SDS011;36190;54.980;73.388;2022-08-11T09:14:58;93.50;;;52.65;;
50291;SDS011;36190;54.980;73.388;2022-08-11T09:17:31;86.00;;;51.23;;
50291;SDS011;36190;54.980;73.388;2022-08-11T09:20:02;86.55;;;50.60;;
50291;SDS011;36190;54.980;73.388;2022-08-11T09:22:33;89.03;;;52.50;;
50291;SDS011;36190;54.980;73.388;2022-08-11T09:25:19;97.13;;;51.53;;
50291;SDS011;36190;54.980;73.388;2022-08-11T09:28:04;93.60;;;53.20;;
50291;SDS011;36190;54.980;73.388;2022-08-11T09:30:39;99.28;;;54.50;;
50291;SDS011;36190;54.980;73.388;2022-08-11T09:33:08;93.80;;;52.40;;
50291;SDS011;36190;54.980;73.388;2022-08-11T09:35:37;87.40;;;50.28;;
50291;SDS011;36190;54.980;73.388;2022-08-11T09:38:08;78.85;;;47.90;;
50291;SDS011;36190;54.980;73.388;2022-08-11T09:40:56;82.35;;;49.38;;
50291;SDS011;36190;54.980;73.388;2022-08-11T09:43:25;79.53;;;49.75;;
50291;SDS011;36190;54.980;73.388;2022-08-11T09:46:12;80.07;;;48.35;;
50291;SDS011;36190;54.980;73.388;2022-08-11T09:48:41;77.18;;;49.58;;
50291;SDS011;36190;54.980;73.388;2022-08-11T09:51:10;81.05;;;47.28;;
50291;SDS011;36190;54.980;73.388;2022-08-11T09:53:39;74.60;;;45.80;;
50291;SDS011;36190;54.980;73.388;2022-08-11T09:56:10;73.40;;;44.60;;
50291;SDS011;36190;54.980;73.388;2022-08-11T09:58:57;72.18;;;45.30;;
50291;SDS011;36190;54.980;73.388;2022-08-11T10:01:28;70.78;;;44.42;;
50291;SDS011;36190;54.980;73.388;2022-08-11T10:04:07;70.55;;;43.85;;
50291;SDS011;36190;54.980;73.388;2022-08-11T10:06:41;69.97;;;43.22;;
50291;SDS011;36190;54.980;73.388;2022-08-11T10:09:27;66.40;;;42.78;;
50291;SDS011;36190;54.980;73.388;2022-08-11T10:14:28;63.65;;;40.80;;
50291;SDS011;36190;54.980;73.388;2022-08-11T10:17:17;69.93;;;42.67;;
50291;SDS011;36190;54.980;73.388;2022-08-11T10:19:47;60.10;;;39.83;;
50291;SDS011;36190;54.980;73.388;2022-08-11T10:22:16;60.67;;;40.63;;
50291;SDS011;36190;54.980;73.388;2022-08-11T10:25:02;65.13;;;42.53;;
50291;SDS011;36190;54.980;73.388;2022-08-11T10:27:47;62.83;;;42.22;;
50291;SDS011;36190;54.980;73.388;2022-08-11T10:30:23;68.72;;;41.50;;
50291;SDS011;36190;54.980;73.388;2022-08-11T10:33:15;66.65;;;42.85;;
50291;SDS011;36190;54.980;73.388;2022-08-11T10:36:01;67.70;;;40.97;;
50291;SDS011;36190;54.980;73.388;2022-08-11T10:38:31;63.42;;;41.28;;
50291;SDS011;36190;54.980;73.388;2022-08-11T10:41:00;65.20;;;41.55;;
50291;SDS011;36190;54.980;73.388;2022-08-11T10:43:46;58.30;;;39.28;;
50291;SDS011;36190;54.980;73.388;2022-08-11T10:46:14;62.05;;;38.55;;
50291;SDS011;36190;54.980;73.388;2022-08-11T10:49:00;56.63;;;37.40;;
50291;SDS011;36190;54.980;73.388;2022-08-11T10:51:28;58.67;;;39.17;;
50291;SDS011;36190;54.980;73.388;2022-08-11T10:54:15;58.45;;;38.22;;
50291;SDS011;36190;54.980;73.388;2022-08-11T10:57:00;58.65;;;37.67;;
50291;SDS011;36190;54.980;73.388;2022-08-11T10:59:44;55.92;;;37.90;;
50291;SDS011;36190;54.980;73.388;2022-08-11T11:02:13;61.08;;;37.92;;
50291;SDS011;36190;54.980;73.388;2022-08-11T11:04:51;59.28;;;39.08;;
50291;SDS011;36190;54.980;73.388;2022-08-11T11:07:26;58.55;;;40.30;;
50291;SDS011;36190;54.980;73.388;2022-08-11T11:10:03;62.53;;;38.85;;
50291;SDS011;36190;54.980;73.388;2022-08-11T11:12:35;56.65;;;38.47;;
50291;SDS011;36190;54.980;73.388;2022-08-11T11:15:24;55.92;;;36.17;;
50291;SDS011;36190;54.980;73.388;2022-08-11T11:18:13;54.05;;;37.78;;
50291;SDS011;36190;54.980;73.388;2022-08-11T11:20:47;57.55;;;39.00;;
50291;SDS011;36190;54.980;73.388;2022-08-11T11:23:19;57.55;;;37.58;;
50291;SDS011;36190;54.980;73.388;2022-08-11T11:26:07;55.15;;;37.70;;
50291;SDS011;36190;54.980;73.388;2022-08-11T11:31:58;53.03;;;37.67;;
50291;SDS011;36190;54.980;73.388;2022-08-11T11:34:47;56.83;;;39.83;;
50291;SDS011;36190;54.980;73.388;2022-08-11T11:37:29;55.25;;;37.58;;
50291;SDS011;36190;54.980;73.388;2022-08-11T11:40:00;61.75;;;37.65;;
50291;SDS011;36190;54.980;73.388;2022-08-11T11:42:34;54.50;;;37.47;;
50291;SDS011;36190;54.980;73.388;2022-08-11T11:45:02;53.03;;;36.50;;
50291;SDS011;36190;54.980;73.388;2022-08-11T11:47:32;54.28;;;36.72;;
50291;SDS011;36190;54.980;73.388;2022-08-11T11:50:01;51.67;;;35.83;;
50291;SDS011;36190;54.980;73.388;2022-08-11T11:52:32;56.92;;;37.28;;
50291;SDS011;36190;54.980;73.388;2022-08-11T11:55:00;55.65;;;39.17;;
50291;SDS011;36190;54.980;73.388;2022-08-11T11:57:29;55.50;;;38.75;;
50291;SDS011;36190;54.980;73.388;2022-08-11T12:00:18;54.22;;;36.05;;
50291;SDS011;36190;54.980;73.388;2022-08-11T12:03:04;57.03;;;35.70;;
50291;SDS011;36190;54.980;73.388;2022-08-11T12:05:35;56.30;;;37.28;;
50291;SDS011;36190;54.980;73.388;2022-08-11T12:08:06;54.70;;;36.50;;
50291;SDS011;36190;54.980;73.388;2022-08-11T12:10:42;52.08;;;35.45;;
50291;SDS011;36190;54.980;73.388;2022-08-11T12:13:10;56.45;;;36.20;;
50291;SDS011;36190;54.980;73.388;2022-08-11T12:15:56;55.80;;;37.15;;
50291;SDS011;36190;54.980;73.388;2022-08-11T12:18:25;50.42;;;37.40;;
50291;SDS011;36190;54.980;73.388;2022-08-11T12:20:53;55.83;;;38.13;;
50291;SDS011;36190;54.980;73.388;2022-08-11T12:23:21;54.25;;;36.95;;
50291;SDS011;36190;54.980;73.388;2022-08-11T12:26:06;55.30;;;38.03;;
50291;SDS011;36190;54.980;73.388;2022-08-11T12:28:51;51.67;;;36.85;;
50291;SDS011;36190;54.980;73.388;2022-08-11T12:31:22;52.00;;;36.10;;
50291;SDS011;36190;54.980;73.388;2022-08-11T12:33:50;56.15;;;37.78;;
50291;SDS011;36190;54.980;73.388;2022-08-11T12:36:18;53.85;;;36.30;;
50291;SDS011;36190;54.980;73.388;2022-08-11T12:38:51;55.72;;;37.85;;
50291;SDS011;36190;54.980;73.388;2022-08-11T12:41:20;58.85;;;36.30;;
50291;SDS011;36190;54.980;73.388;2022-08-11T12:44:06;53.03;;;35.65;;
50291;SDS011;36190;54.980;73.388;2022-08-11T12:46:53;55.55;;;36.92;;
50291;SDS011;36190;54.980;73.388;2022-08-11T12:49:23;50.70;;;36.20;;
50291;SDS011;36190;54.980;73.388;2022-08-11T12:52:16;58.55;;;37.72;;
50291;SDS011;36190;54.980;73.388;2022-08-11T12:54:52;54.55;;;36.63;;
50291;SDS011;36190;54.980;73.388;2022-08-11T12:57:26;60.00;;;39.50;;
50291;SDS011;36190;54.980;73.388;2022-08-11T13:00:14;56.17;;;38.03;;
50291;SDS011;36190;54.980;73.388;2022-08-11T13:03:00;58.30;;;38.83;;
50291;SDS011;36190;54.980;73.388;2022-08-11T13:05:46;61.28;;;38.03;;
50291;SDS011;36190;54.980;73.388;2022-08-11T13:08:18;60.03;;;38.83;;
50291;SDS011;36190;54.980;73.388;2022-08-11T13:10:50;60.00;;;38.30;;
50291;SDS011;36190;54.980;73.388;2022-08-11T13:13:36;61.03;;;37.78;;
50291;SDS011;36190;54.980;73.388;2022-08-11T13:16:08;62.20;;;39.73;;
50291;SDS011;36190;54.980;73.388;2022-08-11T13:18:39;57.70;;;37.72;;
50291;SDS011;36190;54.980;73.388;2022-08-11T13:21:08;60.38;;;39.03;;
50291;SDS011;36190;54.980;73.388;2022-08-11T13:23:37;59.90;;;39.40;;
50291;SDS011;36190;54.980;73.388;2022-08-11T13:26:07;57.63;;;38.55;;
50291;SDS011;36190;54.980;73.388;2022-08-11T13:28:36;55.55;;;37.15;;
50291;SDS011;36190;54.980;73.388;2022-08-11T13:31:06;59.08;;;38.65;;
50291;SDS011;36190;54.980;73.388;2022-08-11T13:33:40;60.35;;;38.50;;
50291;SDS011;36190;54.980;73.388;2022-08-11T13:36:10;62.17;;;39.33;;
50291;SDS011;36190;54.980;73.388;2022-08-11T13:38:40;63.63;;;38.00;;
50291;SDS011;36190;54.980;73.388;2022-08-11T13:41:10;63.78;;;40.75;;
50291;SDS011;36190;54.980;73.388;2022-08-11T13:43:55;81.78;;;42.08;;
50291;SDS011;36190;54.980;73.388;2022-08-11T13:46:23;66.22;;;40.03;;
50291;SDS011;36190;54.980;73.388;2022-08-11T13:48:53;58.53;;;36.45;;
50291;SDS011;36190;54.980;73.388;2022-08-11T13:51:22;62.70;;;37.17;;
50291;SDS011;36190;54.980;73.388;2022-08-11T13:53:58;62.00;;;36.72;;
50291;SDS011;36190;54.980;73.388;2022-08-11T13:56:29;59.42;;;37.03;;
50291;SDS011;36190;54.980;73.388;2022-08-11T13:58:57;63.70;;;36.20;;
50291;SDS011;36190;54.980;73.388;2022-08-11T14:01:27;62.63;;;36.65;;
50291;SDS011;36190;54.980;73.388;2022-08-11T14:03:58;60.13;;;37.35;;
50291;SDS011;36190;54.980;73.388;2022-08-11T14:06:31;62.00;;;37.28;;
50291;SDS011;36190;54.980;73.388;2022-08-11T14:09:01;58.38;;;34.53;;
50291;SDS011;36190;54.980;73.388;2022-08-11T14:11:31;62.03;;;37.28;;
50291;SDS011;36190;54.980;73.388;2022-08-11T14:14:17;65.95;;;37.13;;
50291;SDS011;36190;54.980;73.388;2022-08-11T14:16:49;63.60;;;36.55;;
50291;SDS011;36190;54.980;73.388;2022-08-11T14:19:20;63.58;;;37.20;;
50291;SDS011;36190;54.980;73.388;2022-08-11T14:21:50;60.67;;;36.10;;
50291;SDS011;36190;54.980;73.388;2022-08-11T14:24:36;62.10;;;38.42;;
50291;SDS011;36190;54.980;73.388;2022-08-11T14:27:07;61.45;;;36.38;;
50291;SDS011;36190;54.980;73.388;2022-08-11T14:29:37;60.00;;;37.13;;
50291;SDS011;36190;54.980;73.388;2022-08-11T14:32:08;63.45;;;36.15;;
50291;SDS011;36190;54.980;73.388;2022-08-11T14:34:38;68.63;;;38.10;;
50291;SDS011;36190;54.980;73.388;2022-08-11T14:37:08;66.22;;;38.08;;
50291;SDS011;36190;54.980;73.388;2022-08-11T14:39:40;62.58;;;37.25;;
50291;SDS011;36190;54.980;73.388;2022-08-11T14:42:11;64.20;;;37.08;;
50291;SDS011;36190;54.980;73.388;2022-08-11T14:45:00;62.38;;;36.85;;
50291;SDS011;36190;54.980;73.388;2022-08-11T14:48:02;64.65;;;38.00;;
50291;SDS011;36190;54.980;73.388;2022-08-11T14:50:31;68.32;;;36.97;;
50291;SDS011;36190;54.980;73.388;2022-08-11T14:53:00;58.38;;;34.35;;
50291;SDS011;36190;54.980;73.388;2022-08-11T14:55:31;64.60;;;35.03;;
50291;SDS011;36190;54.980;73.388;2022-08-11T14:58:23;53.38;;;33.92;;
50291;SDS011;36190;54.980;73.388;2022-08-11T15:00:53;58.88;;;34.05;;
50291;SDS011;36190;54.980;73.388;2022-08-11T15:03:22;58.92;;;32.80;;
50291;SDS011;36190;54.980;73.388;2022-08-11T15:05:51;53.53;;;31.88;;
50291;SDS011;36190;54.980;73.388;2022-08-11T15:08:20;56.13;;;32.50;;
50291;SDS011;36190;54.980;73.388;2022-08-11T15:11:10;55.03;;;32.45;;
50291;SDS011;36190;54.980;73.388;2022-08-11T15:13:55;55.13;;;33.17;;
50291;SDS011;36190;54.980;73.388;2022-08-11T15:16:25;53.20;;;32.17;;
50291;SDS011;36190;54.980;73.388;2022-08-11T15:19:11;51.47;;;31.80;;
50291;SDS011;36190;54.980;73.388;2022-08-11T15:21:40;52.70;;;31.65;;
50291;SDS011;36190;54.980;73.388;2022-08-11T15:24:24;55.95;;;31.58;;
50291;SDS011;36190;54.980;73.388;2022-08-11T15:26:52;52.15;;;31.20;;
50291;SDS011;36190;54.980;73.388;2022-08-11T15:29:39;54.83;;;31.55;;
50291;SDS011;36190;54.980;73.388;2022-08-11T15:32:37;51.85;;;31.25;;
50291;SDS011;36190;54.980;73.388;2022-08-11T15:35:24;51.65;;;29.92;;
50291;SDS011;36190;54.980;73.388;2022-08-11T15:38:10;59.22;;;31.55;;
50291;SDS011;36190;54.980;73.388;2022-08-11T15:40:41;57.15;;;31.83;;
50291;SDS011;36190;54.980;73.388;2022-08-11T15:43:27;54.78;;;31.83;;
50291;SDS011;36190;54.980;73.388;2022-08-11T15:46:19;56.55;;;32.72;;
50291;SDS011;36190;54.980;73.388;2022-08-11T15:48:55;55.08;;;32.58;;
50291;SDS011;36190;54.980;73.388;2022-08-11T15:51:28;54.55;;;33.22;;
50291;SDS011;36190;54.980;73.388;2022-08-11T15:54:04;53.45;;;32.65;;
50291;SDS011;36190;54.980;73.388;2022-08-11T15:56:36;54.67;;;32.70;;
50291;SDS011;36190;54.980;73.388;2022-08-11T15:59:07;57.92;;;34.05;;
50291;SDS011;36190;54.980;73.388;2022-08-11T16:01:55;56.42;;;31.13;;
50291;SDS011;36190;54.980;73.388;2022-08-11T16:04:49;54.70;;;30.98;;
50291;SDS011;36190;54.980;73.388;2022-08-11T16:07:20;52.22;;;31.70;;
50291;SDS011;36190;54.980;73.388;2022-08-11T16:09:54;51.47;;;31.35;;
50291;SDS011;36190;54.980;73.388;2022-08-11T16:12:27;48.53;;;29.35;;
50291;SDS011;36190;54.980;73.388;2022-08-11T16:14:58;47.95;;;28.80;;
50291;SDS011;36190;54.980;73.388;2022-08-11T16:17:47;51.78;;;28.63;;
50291;SDS011;36190;54.980;73.388;2022-08-11T16:20:18;50.00;;;29.43;;
50291;SDS011;36190;54.980;73.388;2022-08-11T16:22:48;52.00;;;29.40;;
50291;SDS011;36190;54.980;73.388;2022-08-11T16:25:19;55.58;;;28.80;;
50291;SDS011;36190;54.980;73.388;2022-08-11T16:27:49;48.58;;;29.55;;
50291;SDS011;36190;54.980;73.388;2022-08-11T16:30:19;50.63;;;28.58;;